Highlands Peak, California Weather observations

Data are for observation ending at time listed.
 Day   Time    Ave.   Ave.  Ave.  Vector   Max.   Stn.    Total    Solar   Ave.  
  of    of     Air    Rel.  Wind   Wind    Wind   Baro.  Precip.   Rad.    Soil  
Year   Day     Temp.  Hum.  Speed  Dir.    Gust   Pres.                    Temp. 
2014   (PST)    F      %     mph   deg.    mph     mb.     in.     W/m2     F   
------------------------------------------------------------------------------
 208    1:50   72.8    31    3.8   305      5.3   930.2    0.00       0    85.5
 208    2:00   73.7    30    3.0   323      4.3   930.2    0.00       0    85.3
 208    2:10   73.9    29    5.1    59      7.2   930.0    0.00       0    85.2
 208    2:20   74.9    22    5.6    90      8.6   929.9    0.00       0    85.0
 208    2:30   77.0    20    4.5    74      6.1   929.9    0.00       0    84.7
 208    2:40   76.8    18    6.9    77      8.8   929.9    0.00       0    84.6
 208    2:50   77.2    17    3.9    90      6.2   929.9    0.00       0    84.3
 208    3:00   78.6    18    0.6   257      1.9   929.9    0.00       0    84.0
 208    3:10   78.6    18    1.2   132      3.1   929.9    0.00       0    83.7
 208    3:20   78.3    19    0.8   177      2.9   930.0    0.00       0    83.4
 208    3:30   76.7    19    2.5    87      7.5   929.9    0.00       0    83.4
 208    3:40   73.9    21    4.5    64      7.8   930.0    0.00       0    83.4
 208    3:50   74.2    18    6.0    92      7.8   930.0    0.00       0    83.3
 208    4:00   73.7    24    3.9    83      6.4   930.0    0.00       0    83.1
 208    4:10   73.2    20    1.7   155      3.6   930.2    0.00       0    83.0
 208    4:20   72.4    26    2.0   201      8.6   930.3    0.00       0    82.9
 208    4:30   73.4    22    4.1    98      5.7   930.2    0.00       0    82.6
 208    4:40   73.9    21    6.7    86     10.1   930.2    0.00       0    82.3
 208    4:50   74.5    19    7.3    84     10.1   930.1    0.00       0    82.2
 208    5:00   76.9    17    3.6    76      6.6   930.1    0.00       0    82.1
 208    5:10   77.1    17    2.6   310      4.6   930.2    0.00       2    82.0
 208    5:20   76.0    18    3.2   344      6.4   930.3    0.00       8    81.9
 208    5:30   74.0    17    3.2    52      6.0   930.3    0.00      17    81.8
 208    5:40   75.3    13    3.5    22      7.7   930.4    0.00      27    81.6
 208    5:50   75.8    13    2.4   342      5.3   930.5    0.00      31    81.5
 208    6:00   75.9    15    2.3   344      4.2   930.6    0.00      31    81.3
 208    6:10   75.4    16    3.0    24      4.7   930.6    0.00      50    81.2
 208    6:20   75.0    14    3.3    60      5.1   930.6    0.00      98    81.2
 208    6:30   74.8    13    6.1    87      8.2   930.5    0.00     179    81.1
 208    6:40   77.7    10    4.8    90      7.5   930.5    0.00     400    80.8
 208    6:50   79.6    12    1.1   232      4.0   930.7    0.00     345    80.7
 208    7:00   79.2    15    0.9   212      3.1   930.9    0.00     461    80.8
 208    7:10   76.7    24    2.6   251      5.0   931.0    0.00     451    80.8
 208    7:20   72.7    32    2.9   290      7.1   931.1    0.00     474    80.9
 208    7:30   71.6    33    2.4    77      6.5   931.2    0.00     364    80.9
 208    7:40   75.1    30    2.3    91      4.8   931.2    0.00     498    80.9
 208    7:50   77.6    23    2.6    75      5.1   931.2    0.00     509    80.9
 208    8:00   79.9    18    1.8    74      4.3   931.2    0.00     590    80.9
 208    8:10   81.5    18    1.6   238      3.4   931.2    0.00     605    80.9
 208    8:20   78.7    21    2.7   249      4.4   931.3    0.00     659    81.0
 208    8:30   79.4    23    1.5   259      2.7   931.3    0.00     689    81.1
 208    8:40   79.6    25    2.2   271      4.0   931.4    0.00     722    81.2
 208    8:50   79.2    24    3.1   275      5.8   931.5    0.00     754    81.3
 208    9:00   79.3    24    3.1   277      6.8   931.5    0.00     792    81.5
 208    9:10   79.5    25    3.3   282      6.1   931.5    0.00     833    81.6
 208    9:20   79.2    26    2.4   254      6.7   931.6    0.00     862    81.9
 208    9:30   78.8    29    3.9   263      7.8   931.7    0.00     873    82.1
 208    9:40   78.9    26    4.5   268      8.5   931.8    0.00     889    82.4
 208    9:50   79.2    25    3.5   269      6.6   931.8    0.00     906    82.6
 208   10:00   80.2    22    4.4   262      8.7   931.8    0.00     934    82.9
 208   10:10   79.9    25    4.3   270      8.8   931.8    0.00     947    83.2
 208   10:20   78.9    29    3.0   287      8.3   931.7    0.00     962    83.5
 208   10:30   79.1    28    3.0   274      7.9   931.6    0.00     978    83.8
 208   10:40   80.5    24    4.0   268      6.6   931.6    0.00     992    84.1
 208   10:50   80.5    24    3.1   282      6.2   931.6    0.00    1007    84.3
 208   11:00   81.2    26    3.5   283      6.8   931.6    0.00    1014    84.6
 208   11:10   82.3    26    4.0   282      7.4   931.6    0.00    1018    84.8
 208   11:20   81.4    27    4.5   275      6.8   931.6    0.00    1023    85.2
 208   11:30   81.3    28    4.2   264      7.5   931.5    0.00    1023    85.4
 208   11:40   83.0    24    4.7   255     10.4   931.6    0.00    1025    85.7
 208   11:50   84.0    20    3.7   247      7.6   931.6    0.00    1030    85.9
 208   12:00   84.2    21    4.4   278      7.2   931.5    0.00    1032    86.1
 208   12:10   83.6    23    3.7   282      7.0   931.5    0.00    1032    86.3
 208   12:20   84.8    23    3.3   250      6.6   931.6    0.00    1030    86.6
 208   12:30   84.7    22    4.2   233      8.0   931.6    0.00    1027    86.8
 208   12:40   84.5    15    4.7   201      8.1   931.7    0.00    1023    87.0
 208   12:50   84.9    16    3.7   228      8.4   931.7    0.00    1015    87.1
 208   13:00   86.1    17    4.0   266      8.8   931.6    0.00    1006    87.3
 208   13:10   85.4    16    4.9   275      8.4   931.7    0.00     994    87.5
 208   13:20   84.7    18    5.5   278      8.7   931.6    0.00     982    87.8
 208   13:30   83.9    19    5.8   273      8.3   931.5    0.00     972    88.1
 208   13:40   82.5    19    4.8   279      7.8   931.5    0.00     958    88.5
 208   13:50   82.3    24    4.5   274      7.8   931.4    0.00     918    88.9
 208   14:00   79.8    28    3.6   277      6.8   931.4    0.00     927    89.3
 208   14:10   81.3    19    3.9   280      7.5   931.4    0.00     908    89.8
 208   14:20   80.0    22    3.8   277      6.9   931.5    0.00     886    90.2
 208   14:30   82.0    20    3.7   286      6.2   931.4    0.00     865    90.6
 208   14:40   82.8    15    3.9   277      6.1   931.3    0.00     844    91.0
 208   14:50   82.8    16    4.1   281      7.7   931.3    0.00     819    91.4
 208   15:00   83.6    12    4.9   276      7.9   931.3    0.00     795    91.8
 208   15:10   84.2    13    4.6   276      7.6   931.2    0.00     771    92.1
 208   15:20   83.4    15    5.0   270      8.0   931.2    0.00     744    92.5
 208   15:30   83.1    17    4.9   269      7.3   931.2    0.00     714    92.9
 208   15:40   84.1    17    4.4   276      7.2   931.2    0.00     686    93.2
 208   15:50   84.0    16    4.3   274      6.9   931.2    0.00     656    93.6
 208   16:00   83.5    15    4.1   276      7.1   931.2    0.00     624    93.8
 208   16:10   82.4    16    3.4   280      6.0   931.2    0.00     591    94.1
 208   16:20   82.6    21    4.1   284      6.7   931.1    0.00     556    94.4
 208   16:30   83.1    20    2.8   287      5.3   931.1    0.00     522    94.6
 208   16:40   82.8    21    3.2   278      5.4   931.0    0.00     486    94.8
 208   16:50   82.3    15    3.3   272      5.0   930.9    0.00     437    95.0
 208   17:00   82.8    15    2.5   282      3.7   930.9    0.00     408    95.1
 208   17:10   82.0    20    2.4   274      4.7   931.0    0.00     378    95.3
 208   17:20   82.3    23    2.5   286      4.4   931.0    0.00     346    95.4
 208   17:30   81.9    21    2.2   281      3.9   931.0    0.00     310    95.5
 208   17:40   82.3    22    1.6   288      3.1   931.0    0.00     275    95.6
 208   17:50   80.9    28    2.1   273      4.3   931.0    0.00     240    95.6
 208   18:00   79.9    34    1.5   274      3.4   930.9    0.00     205    95.7
 208   18:10   80.0    31    1.1   295      2.3   930.8    0.00     173    95.7
 208   18:20   80.0    33    1.3   280      2.8   930.8    0.00     142    95.7
 208   18:30   79.6    31    1.1   286      2.8   930.8    0.00     114    95.7
 208   18:40   79.0    32    0.5   268      2.0   930.8    0.00      88    95.7
 208   18:50   78.7    32    0.1   303      1.0   930.8    0.00      64    95.6
 208   19:00   77.5    32    1.1   322      2.0   930.8    0.00      42    95.5
 208   19:10   76.1    30    1.7    27      2.6   930.8    0.00      24    95.4
 208   19:20   74.8    32    2.2    53      4.2   930.9    0.00       9    95.2
 208   19:30   74.5    27    3.0    12      4.2   930.9    0.00       2    95.1
 208   19:40   74.0    30    2.8    26      3.4   930.9    0.00       1    94.9
 208   19:50   73.9    28    1.4    53      2.4   931.0    0.00       0    94.7
 208   20:00   73.9    22    2.6    68      4.0   931.2    0.00       0    94.5
 208   20:10   74.3    24    2.4   323      4.3   931.2    0.00       0    94.2
 208   20:20   72.4    30    2.9   356      4.7   931.3    0.00       0    94.0
 208   20:30   72.6    26    2.4   322      3.6   931.4    0.00       0    93.8
 208   20:40   72.1    25    3.1   321      3.6   931.5    0.00       0    93.5
 208   20:50   72.1    25    3.2    19      5.4   931.5    0.00       0    93.4
 208   21:00   74.4    16    4.7    38      6.0   931.5    0.00       0    93.1
 208   21:10   75.6    13    4.9    51      7.3   931.6    0.00       0    92.8
 208   21:20   76.7    11    4.0    54      6.4   931.6    0.00       0    92.4
 208   21:30   76.6    12    3.8    59      5.3   931.6    0.00       0    92.1
 208   21:40   75.2    14    6.0    60      7.3   931.6    0.00       0    91.7
 208   21:50   75.0    13    6.5    53      8.7   931.5    0.00       0    91.5
 208   22:00   75.0    14    6.4    74      9.9   931.5    0.00       0    91.1
 208   22:10   75.9    13    4.4    66      5.8   931.5    0.00       0    90.7
 208   22:20   76.3    13    5.9    54      7.7   931.5    0.00       0    90.4
 208   22:30   76.7    13    5.1    22      7.0   931.5    0.00       0    90.2
 208   22:40   77.0    12    3.3     7      4.7   931.5    0.00       0    89.8
 208   22:50   77.6    12    3.7    64      5.5   931.5    0.00       0    89.5
 208   23:00   76.9    13    4.6    40      5.8   931.4    0.00       0    89.3
 208   23:10   77.1    13    5.4    57      6.9   931.4    0.00       0    89.1
 208   23:20   77.8    13    5.7    42      7.5   931.5    0.00       0    88.8
 208   23:30   78.3    13    3.9    36      6.3   931.4    0.00       0    88.5
 208   23:40   78.1    12    3.8   339      5.0   931.4    0.00       0    88.2
 208   23:50   77.6    11    2.6   343      3.9   931.4    0.00       0    88.0
 209    0:00   77.3    13    3.1    65      4.2   931.3    0.00       0    87.7
 209    0:10   77.8    12    4.1    62      5.2   931.2    0.00       0    87.5
 209    0:20   78.9    10    3.2     8      6.2   931.2    0.00       0    87.3
 209    0:30   79.2    12    1.6    48      3.8   931.3    0.00       0    87.1
 209    0:40   78.4    13    1.2    65      2.2   931.2    0.00       0    86.9
 209    0:50   77.5    14    2.4   111      3.3   931.2    0.00       0    86.6
 209    1:00   77.1    12    1.0   112      2.3   931.1    0.00       0    86.0
 209    1:10   77.8    12    0.4    98      1.5   931.0    0.00       0    85.8
 209    1:20   77.7    12    1.2   101      2.2   930.9    0.00       0    85.8
 209    1:30   77.3    13    1.6   125      2.5   930.9    0.00       0    85.7
 209    1:40   77.3    12    0.6   143      1.6   930.9    0.00       0    85.5

Return to Highlands Peak graphs page.


Western Regional Climate Center,wrcc@dri.edu